sensor_id;sensor_type;location;lat;lon;timestamp;pressure;altitude;pressure_sealevel;temperature;humidity
9893;BME280;4985;49.092;8.542;2023-08-06T00:00:15;98529.81;;;23.61;48.10
9893;BME280;4985;49.092;8.542;2023-08-06T00:02:43;98539.47;;;23.62;48.10
9893;BME280;4985;49.092;8.542;2023-08-06T00:05:10;98530.59;;;23.62;48.10
9893;BME280;4985;49.092;8.542;2023-08-06T00:07:36;98529.81;;;23.61;48.09
9893;BME280;4985;49.092;8.542;2023-08-06T00:10:14;98525.22;;;23.62;48.11
9893;BME280;4985;49.092;8.542;2023-08-06T00:12:40;98520.94;;;23.61;48.09
9893;BME280;4985;49.092;8.542;2023-08-06T00:15:08;98516.38;;;23.61;48.09
9893;BME280;4985;49.092;8.542;2023-08-06T00:17:35;98518.25;;;23.61;48.09
9893;BME280;4985;49.092;8.542;2023-08-06T00:20:04;98515.84;;;23.59;48.09
9893;BME280;4985;49.092;8.542;2023-08-06T00:22:31;98515.03;;;23.59;48.09
9893;BME280;4985;49.092;8.542;2023-08-06T00:24:58;98509.66;;;23.59;48.10
9893;BME280;4985;49.092;8.542;2023-08-06T00:27:25;98508.84;;;23.58;48.09
9893;BME280;4985;49.092;8.542;2023-08-06T00:29:51;98505.09;;;23.59;48.09
9893;BME280;4985;49.092;8.542;2023-08-06T00:32:21;98501.84;;;23.57;48.09
9893;BME280;4985;49.092;8.542;2023-08-06T00:34:48;98506.16;;;23.58;48.08
9893;BME280;4985;49.092;8.542;2023-08-06T00:37:17;98499.16;;;23.57;48.09
9893;BME280;4985;49.092;8.542;2023-08-06T00:39:44;98493.22;;;23.55;48.08
9893;BME280;4985;49.092;8.542;2023-08-06T00:42:23;98489.22;;;23.58;48.07
9893;BME280;4985;49.092;8.542;2023-08-06T00:44:49;98482.22;;;23.57;48.08
9893;BME280;4985;49.092;8.542;2023-08-06T00:47:16;98484.91;;;23.57;48.09
9893;BME280;4985;49.092;8.542;2023-08-06T00:49:43;98473.59;;;23.54;48.08
9893;BME280;4985;49.092;8.542;2023-08-06T00:52:10;98472.81;;;23.54;48.08
9893;BME280;4985;49.092;8.542;2023-08-06T00:54:39;98462.06;;;23.54;48.08
9893;BME280;4985;49.092;8.542;2023-08-06T00:57:14;98464.75;;;23.54;48.09
9893;BME280;4985;49.092;8.542;2023-08-06T00:59:41;98455.88;;;23.53;48.08
9893;BME280;4985;49.092;8.542;2023-08-06T01:02:07;98464.75;;;23.54;48.08
9893;BME280;4985;49.092;8.542;2023-08-06T01:04:34;98463.13;;;23.53;48.08
9893;BME280;4985;49.092;8.542;2023-08-06T01:07:06;98463.94;;;23.53;48.09
9893;BME280;4985;49.092;8.542;2023-08-06T01:09:45;98456.94;;;23.52;48.09
9893;BME280;4985;49.092;8.542;2023-08-06T01:12:24;98461.53;;;23.52;48.09
9893;BME280;4985;49.092;8.542;2023-08-06T01:14:59;98460.72;;;23.51;48.10
9893;BME280;4985;49.092;8.542;2023-08-06T01:17:29;98456.16;;;23.52;48.09
9893;BME280;4985;49.092;8.542;2023-08-06T01:19:57;98452.94;;;23.50;48.12
9893;BME280;4985;49.092;8.542;2023-08-06T01:22:24;98455.63;;;23.50;48.12
9893;BME280;4985;49.092;8.542;2023-08-06T01:24:52;98446.75;;;23.49;48.11
9893;BME280;4985;49.092;8.542;2023-08-06T01:27:33;98444.34;;;23.48;48.11
9893;BME280;4985;49.092;8.542;2023-08-06T01:30:06;98449.72;;;23.48;48.11
9893;BME280;4985;49.092;8.542;2023-08-06T01:32:35;98445.13;;;23.48;48.11
9893;BME280;4985;49.092;8.542;2023-08-06T01:35:06;98441.66;;;23.48;48.10
9893;BME280;4985;49.092;8.542;2023-08-06T01:37:34;98441.66;;;23.48;48.10
9893;BME280;4985;49.092;8.542;2023-08-06T01:40:01;98435.47;;;23.47;48.10
9893;BME280;4985;49.092;8.542;2023-08-06T01:42:31;98429.28;;;23.47;48.11
9893;BME280;4985;49.092;8.542;2023-08-06T01:44:58;98425.00;;;23.46;48.08
9893;BME280;4985;49.092;8.542;2023-08-06T01:47:24;98429.56;;;23.45;48.08
9893;BME280;4985;49.092;8.542;2023-08-06T01:49:51;98428.50;;;23.46;48.08
9893;BME280;4985;49.092;8.542;2023-08-06T01:52:17;98426.59;;;23.47;48.09
9893;BME280;4985;49.092;8.542;2023-08-06T01:54:45;98422.31;;;23.46;48.08
9893;BME280;4985;49.092;8.542;2023-08-06T01:57:12;98430.37;;;23.46;48.08
9893;BME280;4985;49.092;8.542;2023-08-06T01:59:38;98426.06;;;23.45;48.09
9893;BME280;4985;49.092;8.542;2023-08-06T02:02:05;98421.75;;;23.44;48.10
9893;BME280;4985;49.092;8.542;2023-08-06T02:04:32;98424.44;;;23.44;48.09
9893;BME280;4985;49.092;8.542;2023-08-06T02:06:58;98419.06;;;23.44;48.10
9893;BME280;4985;49.092;8.542;2023-08-06T02:09:25;98424.44;;;23.44;48.10
9893;BME280;4985;49.092;8.542;2023-08-06T02:11:53;98412.09;;;23.43;48.10
9893;BME280;4985;49.092;8.542;2023-08-06T02:14:26;98418.53;;;23.42;48.11
9893;BME280;4985;49.092;8.542;2023-08-06T02:16:56;98405.09;;;23.42;48.11
9893;BME280;4985;49.092;8.542;2023-08-06T02:19:23;98400.00;;;23.40;48.10
9893;BME280;4985;49.092;8.542;2023-08-06T02:21:49;98397.31;;;23.40;48.10
9893;BME280;4985;49.092;8.542;2023-08-06T02:24:16;98400.81;;;23.41;48.10
9893;BME280;4985;49.092;8.542;2023-08-06T02:26:44;98384.69;;;23.41;48.08
9893;BME280;4985;49.092;8.542;2023-08-06T02:29:18;98384.69;;;23.41;48.07
9893;BME280;4985;49.092;8.542;2023-08-06T02:31:44;98372.34;;;23.40;48.07
9893;BME280;4985;49.092;8.542;2023-08-06T02:34:11;98380.41;;;23.40;48.05
9893;BME280;4985;49.092;8.542;2023-08-06T02:36:37;98383.09;;;23.40;48.05
9893;BME280;4985;49.092;8.542;2023-08-06T02:39:04;98376.09;;;23.39;48.07
9893;BME280;4985;49.092;8.542;2023-08-06T02:41:31;98385.25;;;23.38;48.08
9893;BME280;4985;49.092;8.542;2023-08-06T02:43:57;98382.56;;;23.38;48.11
9893;BME280;4985;49.092;8.542;2023-08-06T02:46:25;98390.59;;;23.38;48.09
9893;BME280;4985;49.092;8.542;2023-08-06T02:48:52;98388.19;;;23.36;48.11
9893;BME280;4985;49.092;8.542;2023-08-06T02:51:18;98380.41;;;23.35;48.11
9893;BME280;4985;49.092;8.542;2023-08-06T02:53:45;98375.84;;;23.35;48.13
9893;BME280;4985;49.092;8.542;2023-08-06T02:56:11;98381.50;;;23.34;48.13
9893;BME280;4985;49.092;8.542;2023-08-06T02:58:38;98375.31;;;23.33;48.12
9893;BME280;4985;49.092;8.542;2023-08-06T03:01:05;98378.81;;;23.34;48.13
9893;BME280;4985;49.092;8.542;2023-08-06T03:03:34;98390.59;;;23.33;48.14
9893;BME280;4985;49.092;8.542;2023-08-06T03:06:01;98383.88;;;23.30;48.15
9893;BME280;4985;49.092;8.542;2023-08-06T03:08:27;98392.75;;;23.31;48.16
9893;BME280;4985;49.092;8.542;2023-08-06T03:10:54;98386.84;;;23.29;48.16
9893;BME280;4985;49.092;8.542;2023-08-06T03:13:21;98392.22;;;23.29;48.17
9893;BME280;4985;49.092;8.542;2023-08-06T03:15:54;98388.72;;;23.28;48.19
9893;BME280;4985;49.092;8.542;2023-08-06T03:18:24;98381.75;;;23.27;48.21
9893;BME280;4985;49.092;8.542;2023-08-06T03:21:05;98381.75;;;23.22;48.24
9893;BME280;4985;49.092;8.542;2023-08-06T03:23:31;98380.41;;;23.24;48.26
9893;BME280;4985;49.092;8.542;2023-08-06T03:26:03;98378.78;;;23.23;48.29
9893;BME280;4985;49.092;8.542;2023-08-06T03:28:29;98374.50;;;23.22;48.29
9893;BME280;4985;49.092;8.542;2023-08-06T03:31:01;98394.34;;;23.21;48.30
9893;BME280;4985;49.092;8.542;2023-08-06T03:33:28;98393.81;;;23.19;48.30
9893;BME280;4985;49.092;8.542;2023-08-06T03:35:55;98390.03;;;23.20;48.32
9893;BME280;4985;49.092;8.542;2023-08-06T03:38:23;98394.59;;;23.20;48.32
9893;BME280;4985;49.092;8.542;2023-08-06T03:40:49;98393.81;;;23.19;48.33
9893;BME280;4985;49.092;8.542;2023-08-06T03:43:16;98400.25;;;23.18;48.36
9893;BME280;4985;49.092;8.542;2023-08-06T03:45:43;98388.97;;;23.16;48.40
9893;BME280;4985;49.092;8.542;2023-08-06T03:48:09;98395.41;;;23.15;48.41
9893;BME280;4985;49.092;8.542;2023-08-06T03:50:36;98405.63;;;23.13;48.43
9893;BME280;4985;49.092;8.542;2023-08-06T03:53:03;98401.88;;;23.14;48.44
9893;BME280;4985;49.092;8.542;2023-08-06T03:55:31;98401.06;;;23.14;48.44
9893;BME280;4985;49.092;8.542;2023-08-06T03:57:57;98403.22;;;23.12;48.45
9893;BME280;4985;49.092;8.542;2023-08-06T04:00:24;98404.00;;;23.12;48.46
9893;BME280;4985;49.092;8.542;2023-08-06T04:02:50;98409.38;;;23.12;48.46
9893;BME280;4985;49.092;8.542;2023-08-06T04:05:18;98398.66;;;23.12;48.46
9893;BME280;4985;49.092;8.542;2023-08-06T04:07:59;98399.72;;;23.11;48.44
9893;BME280;4985;49.092;8.542;2023-08-06T04:10:26;98404.00;;;23.12;48.46
9893;BME280;4985;49.092;8.542;2023-08-06T04:13:03;98401.59;;;23.11;48.46
9893;BME280;4985;49.092;8.542;2023-08-06T04:15:30;98398.09;;;23.10;48.44
9893;BME280;4985;49.092;8.542;2023-08-06T04:17:56;98400.75;;;23.10;48.46
9893;BME280;4985;49.092;8.542;2023-08-06T04:20:23;98398.34;;;23.09;48.46
9893;BME280;4985;49.092;8.542;2023-08-06T04:22:49;98405.31;;;23.10;48.47
9893;BME280;4985;49.092;8.542;2023-08-06T04:25:16;98397.53;;;23.08;48.46
9893;BME280;4985;49.092;8.542;2023-08-06T04:27:46;98402.91;;;23.08;48.46
9893;BME280;4985;49.092;8.542;2023-08-06T04:30:14;98392.19;;;23.08;48.46
9893;BME280;4985;49.092;8.542;2023-08-06T04:32:40;98391.38;;;23.08;48.45
9893;BME280;4985;49.092;8.542;2023-08-06T04:35:07;98392.19;;;23.08;48.43
9893;BME280;4985;49.092;8.542;2023-08-06T04:37:34;98397.53;;;23.08;48.44
9893;BME280;4985;49.092;8.542;2023-08-06T04:40:00;98394.84;;;23.08;48.43
9893;BME280;4985;49.092;8.542;2023-08-06T04:42:27;98393.25;;;23.07;48.43
9893;BME280;4985;49.092;8.542;2023-08-06T04:44:53;98387.88;;;23.07;48.42
9893;BME280;4985;49.092;8.542;2023-08-06T04:47:21;98393.25;;;23.07;48.44
9893;BME280;4985;49.092;8.542;2023-08-06T04:49:48;98392.44;;;23.07;48.44
9893;BME280;4985;49.092;8.542;2023-08-06T04:52:14;98383.59;;;23.06;48.44
9893;BME280;4985;49.092;8.542;2023-08-06T04:54:41;98392.44;;;23.07;48.43
9893;BME280;4985;49.092;8.542;2023-08-06T04:57:08;98380.91;;;23.06;48.45
9893;BME280;4985;49.092;8.542;2023-08-06T04:59:54;98375.00;;;23.04;48.46
9893;BME280;4985;49.092;8.542;2023-08-06T05:02:22;98388.69;;;23.03;48.47
9893;BME280;4985;49.092;8.542;2023-08-06T05:04:48;98382.53;;;23.02;48.50
9893;BME280;4985;49.092;8.542;2023-08-06T05:07:15;98384.66;;;23.00;48.50
9893;BME280;4985;49.092;8.542;2023-08-06T05:09:41;98389.75;;;23.02;48.51
9893;BME280;4985;49.092;8.542;2023-08-06T05:12:08;98388.97;;;23.01;48.51
9893;BME280;4985;49.092;8.542;2023-08-06T05:14:35;98394.34;;;23.01;48.51
9893;BME280;4985;49.092;8.542;2023-08-06T05:17:02;98389.22;;;23.00;48.52
9893;BME280;4985;49.092;8.542;2023-08-06T05:19:31;98396.22;;;23.01;48.51
9893;BME280;4985;49.092;8.542;2023-08-06T05:21:57;98389.22;;;23.00;48.52
9893;BME280;4985;49.092;8.542;2023-08-06T05:24:24;98393.78;;;22.99;48.52
9893;BME280;4985;49.092;8.542;2023-08-06T05:26:51;98392.72;;;23.00;48.49
9893;BME280;4985;49.092;8.542;2023-08-06T05:29:18;98397.28;;;23.00;48.48
9893;BME280;4985;49.092;8.542;2023-08-06T05:31:51;98395.41;;;23.00;48.48
9893;BME280;4985;49.092;8.542;2023-08-06T05:34:17;98395.41;;;23.00;48.47
9893;BME280;4985;49.092;8.542;2023-08-06T05:36:45;98398.91;;;23.01;48.46
9893;BME280;4985;49.092;8.542;2023-08-06T05:39:12;98412.31;;;23.01;48.45
9893;BME280;4985;49.092;8.542;2023-08-06T05:41:38;98401.28;;;22.97;48.46
9893;BME280;4985;49.092;8.542;2023-08-06T05:44:05;98398.91;;;23.01;48.46
9893;BME280;4985;49.092;8.542;2023-08-06T05:46:31;98406.38;;;22.99;48.46
9893;BME280;4985;49.092;8.542;2023-08-06T05:48:58;98395.63;;;22.99;48.47
9893;BME280;4985;49.092;8.542;2023-08-06T05:51:26;98402.88;;;22.98;48.46
9893;BME280;4985;49.092;8.542;2023-08-06T05:53:54;98403.69;;;22.99;48.46
9893;BME280;4985;49.092;8.542;2023-08-06T05:56:20;98406.38;;;22.99;48.45
9893;BME280;4985;49.092;8.542;2023-08-06T05:58:47;98403.69;;;22.99;48.46
9893;BME280;4985;49.092;8.542;2023-08-06T06:01:15;98409.91;;;22.99;48.46
9893;BME280;4985;49.092;8.542;2023-08-06T06:03:51;98407.22;;;22.99;48.45
9893;BME280;4985;49.092;8.542;2023-08-06T06:06:18;98406.38;;;22.99;48.43
9893;BME280;4985;49.092;8.542;2023-08-06T06:08:45;98402.88;;;22.98;48.42
9893;BME280;4985;49.092;8.542;2023-08-06T06:11:13;98403.16;;;22.97;48.44
9893;BME280;4985;49.092;8.542;2023-08-06T06:13:40;98406.66;;;22.97;48.47
9893;BME280;4985;49.092;8.542;2023-08-06T06:16:06;98409.59;;;22.95;48.47
9893;BME280;4985;49.092;8.542;2023-08-06T06:18:33;98407.19;;;22.94;48.49
9893;BME280;4985;49.092;8.542;2023-08-06T06:21:10;98407.19;;;22.94;48.49
9893;BME280;4985;49.092;8.542;2023-08-06T06:23:36;98419.00;;;22.93;48.51
9893;BME280;4985;49.092;8.542;2023-08-06T06:26:03;98409.34;;;22.92;48.55
9893;BME280;4985;49.092;8.542;2023-08-06T06:28:31;98413.09;;;22.91;48.55
9893;BME280;4985;49.092;8.542;2023-08-06T06:31:00;98414.97;;;22.90;48.55
9893;BME280;4985;49.092;8.542;2023-08-06T06:33:32;98418.72;;;22.89;48.55
9893;BME280;4985;49.092;8.542;2023-08-06T06:35:59;98425.97;;;22.89;48.58
9893;BME280;4985;49.092;8.542;2023-08-06T06:38:25;98434.00;;;22.89;48.60
9893;BME280;4985;49.092;8.542;2023-08-06T06:40:55;98433.44;;;22.87;48.63
9893;BME280;4985;49.092;8.542;2023-08-06T06:43:21;98444.19;;;22.87;48.63
9893;BME280;4985;49.092;8.542;2023-08-06T06:45:53;98439.88;;;22.86;48.63
9893;BME280;4985;49.092;8.542;2023-08-06T06:48:20;98436.13;;;22.87;48.63
9893;BME280;4985;49.092;8.542;2023-08-06T06:50:47;98427.81;;;22.83;48.62
9893;BME280;4985;49.092;8.542;2023-08-06T06:53:13;98435.31;;;22.86;48.62
9893;BME280;4985;49.092;8.542;2023-08-06T06:55:42;98441.75;;;22.85;48.62
9893;BME280;4985;49.092;8.542;2023-08-06T06:58:08;98431.03;;;22.85;48.63
9893;BME280;4985;49.092;8.542;2023-08-06T07:00:35;98430.22;;;22.85;48.62
9893;BME280;4985;49.092;8.542;2023-08-06T07:03:12;98430.22;;;22.85;48.61
9893;BME280;4985;49.092;8.542;2023-08-06T07:05:39;98427.53;;;22.85;48.61
9893;BME280;4985;49.092;8.542;2023-08-06T07:08:06;98427.53;;;22.85;48.61
9893;BME280;4985;49.092;8.542;2023-08-06T07:10:32;98423.78;;;22.86;48.62
9893;BME280;4985;49.092;8.542;2023-08-06T07:12:59;98430.22;;;22.85;48.63
9893;BME280;4985;49.092;8.542;2023-08-06T07:15:25;98422.97;;;22.85;48.63
9893;BME280;4985;49.092;8.542;2023-08-06T07:17:52;98431.31;;;22.84;48.64
9893;BME280;4985;49.092;8.542;2023-08-06T07:20:20;98417.09;;;22.83;48.66
9893;BME280;4985;49.092;8.542;2023-08-06T07:22:46;98422.44;;;22.83;48.67
9893;BME280;4985;49.092;8.542;2023-08-06T07:25:13;98425.38;;;22.82;48.68
9893;BME280;4985;49.092;8.542;2023-08-06T07:27:40;98419.19;;;22.81;48.70
9893;BME280;4985;49.092;8.542;2023-08-06T07:30:07;98420.81;;;22.82;48.86
9893;BME280;4985;49.092;8.542;2023-08-06T07:32:34;98415.44;;;22.82;48.95
9893;BME280;4985;49.092;8.542;2023-08-06T07:35:00;98437.72;;;22.83;48.95
9893;BME280;4985;49.092;8.542;2023-08-06T07:37:43;98436.91;;;22.82;48.90
9893;BME280;4985;49.092;8.542;2023-08-06T07:40:10;98429.13;;;22.81;48.90
9893;BME280;4985;49.092;8.542;2023-08-06T07:42:37;98428.31;;;22.80;48.91
9893;BME280;4985;49.092;8.542;2023-08-06T07:45:04;98429.13;;;22.81;48.91
9893;BME280;4985;49.092;8.542;2023-08-06T07:47:31;98438.78;;;22.82;48.88
9893;BME280;4985;49.092;8.542;2023-08-06T07:49:57;98429.94;;;22.81;48.86
9893;BME280;4985;49.092;8.542;2023-08-06T07:52:44;98432.34;;;22.83;48.86
9893;BME280;4985;49.092;8.542;2023-08-06T07:55:10;98424.81;;;22.80;48.87
9893;BME280;4985;49.092;8.542;2023-08-06T07:57:37;98426.72;;;22.79;48.89
9893;BME280;4985;49.092;8.542;2023-08-06T08:00:10;98429.13;;;22.81;49.06
9893;BME280;4985;49.092;8.542;2023-08-06T08:02:37;98434.50;;;22.81;49.19
9893;BME280;4985;49.092;8.542;2023-08-06T08:05:04;98429.13;;;22.81;49.21
9893;BME280;4985;49.092;8.542;2023-08-06T08:07:32;98433.69;;;22.80;49.13
9893;BME280;4985;49.092;8.542;2023-08-06T08:10:00;98427.50;;;22.80;49.09
9893;BME280;4985;49.092;8.542;2023-08-06T08:12:27;98428.31;;;22.80;49.08
9893;BME280;4985;49.092;8.542;2023-08-06T08:14:53;98421.06;;;22.81;49.08
9893;BME280;4985;49.092;8.542;2023-08-06T08:17:20;98424.56;;;22.81;49.06
9893;BME280;4985;49.092;8.542;2023-08-06T08:19:46;98415.72;;;22.81;49.08
9893;BME280;4985;49.092;8.542;2023-08-06T08:22:13;98419.47;;;22.80;49.07
9893;BME280;4985;49.092;8.542;2023-08-06T08:24:40;98429.94;;;22.81;49.07
9893;BME280;4985;49.092;8.542;2023-08-06T08:27:07;98426.72;;;22.79;49.06
9893;BME280;4985;49.092;8.542;2023-08-06T08:29:34;98436.09;;;22.82;49.08
9893;BME280;4985;49.092;8.542;2023-08-06T08:32:01;98435.28;;;22.81;49.08
9893;BME280;4985;49.092;8.542;2023-08-06T08:34:27;98440.66;;;22.81;49.09
9893;BME280;4985;49.092;8.542;2023-08-06T08:36:54;98434.50;;;22.81;49.10
9893;BME280;4985;49.092;8.542;2023-08-06T08:39:20;98419.75;;;22.83;49.09
9893;BME280;4985;49.092;8.542;2023-08-06T08:41:50;98436.09;;;22.82;49.06
9893;BME280;4985;49.092;8.542;2023-08-06T08:44:18;98431.53;;;22.82;49.06
9893;BME280;4985;49.092;8.542;2023-08-06T08:46:45;98431.31;;;22.84;49.05
9893;BME280;4985;49.092;8.542;2023-08-06T08:49:13;98424.28;;;22.83;49.05
9893;BME280;4985;49.092;8.542;2023-08-06T08:51:39;98424.88;;;22.85;49.04
9893;BME280;4985;49.092;8.542;2023-08-06T08:54:13;98425.94;;;22.84;49.03
9893;BME280;4985;49.092;8.542;2023-08-06T08:56:41;98414.13;;;22.85;49.03
9893;BME280;4985;49.092;8.542;2023-08-06T08:59:09;98417.88;;;22.84;49.05
9893;BME280;4985;49.092;8.542;2023-08-06T09:01:39;98416.25;;;22.83;49.06
9893;BME280;4985;49.092;8.542;2023-08-06T09:04:07;98412.50;;;22.84;49.08
9893;BME280;4985;49.092;8.542;2023-08-06T09:06:37;98414.41;;;22.83;49.09
9893;BME280;4985;49.092;8.542;2023-08-06T09:09:06;98423.25;;;22.84;49.09
9893;BME280;4985;49.092;8.542;2023-08-06T09:11:38;98416.25;;;22.83;49.09
9893;BME280;4985;49.092;8.542;2023-08-06T09:14:06;98429.44;;;22.84;49.09
9893;BME280;4985;49.092;8.542;2023-08-06T09:16:34;98422.19;;;22.85;49.08
9893;BME280;4985;49.092;8.542;2023-08-06T09:19:09;98430.22;;;22.85;49.07
9893;BME280;4985;49.092;8.542;2023-08-06T09:21:38;98436.66;;;22.84;49.10
9893;BME280;4985;49.092;8.542;2023-08-06T09:24:08;98435.88;;;22.83;49.12
9893;BME280;4985;49.092;8.542;2023-08-06T09:26:36;98435.88;;;22.83;49.12
9893;BME280;4985;49.092;8.542;2023-08-06T09:29:05;98435.59;;;22.85;49.12
9893;BME280;4985;49.092;8.542;2023-08-06T09:31:40;98442.03;;;22.84;49.13
9893;BME280;4985;49.092;8.542;2023-08-06T09:34:11;98433.97;;;22.84;49.14
9893;BME280;4985;49.092;8.542;2023-08-06T09:36:41;98427.81;;;22.83;49.18
9893;BME280;4985;49.092;8.542;2023-08-06T09:39:15;98427.81;;;22.83;49.19
9893;BME280;4985;49.092;8.542;2023-08-06T09:41:43;98438.53;;;22.83;49.20
9893;BME280;4985;49.092;8.542;2023-08-06T09:44:15;98444.72;;;22.84;49.20
9893;BME280;4985;49.092;8.542;2023-08-06T09:46:53;98436.66;;;22.84;49.21
9893;BME280;4985;49.092;8.542;2023-08-06T09:49:24;98440.38;;;22.83;49.21
9893;BME280;4985;49.092;8.542;2023-08-06T09:51:52;98440.16;;;22.84;49.22
9893;BME280;4985;49.092;8.542;2023-08-06T09:54:22;98443.66;;;22.85;49.21
9893;BME280;4985;49.092;8.542;2023-08-06T09:56:48;98449.00;;;22.85;49.20
9893;BME280;4985;49.092;8.542;2023-08-06T09:59:16;98447.13;;;22.85;49.21
9893;BME280;4985;49.092;8.542;2023-08-06T10:01:43;98451.69;;;22.85;49.21
9893;BME280;4985;49.092;8.542;2023-08-06T10:04:21;98465.12;;;22.85;49.22
9893;BME280;4985;49.092;8.542;2023-08-06T10:06:52;98457.88;;;22.85;49.20
9893;BME280;4985;49.092;8.542;2023-08-06T10:09:19;98452.50;;;22.85;49.21
9893;BME280;4985;49.092;8.542;2023-08-06T10:11:53;98443.59;;;22.80;49.21
9893;BME280;4985;49.092;8.542;2023-08-06T10:14:27;98444.72;;;22.84;49.21
9893;BME280;4985;49.092;8.542;2023-08-06T10:16:57;98466.19;;;22.84;49.22
9893;BME280;4985;49.092;8.542;2023-08-06T10:19:58;98460.81;;;22.84;49.21
9893;BME280;4985;49.092;8.542;2023-08-06T10:22:34;98450.09;;;22.84;49.22
9893;BME280;4985;49.092;8.542;2023-08-06T10:25:02;98460.81;;;22.84;49.21
9893;BME280;4985;49.092;8.542;2023-08-06T10:27:32;98463.50;;;22.84;49.21
9893;BME280;4985;49.092;8.542;2023-08-06T10:30:21;98468.06;;;22.83;49.20
9893;BME280;4985;49.092;8.542;2023-08-06T10:32:48;98491.13;;;22.84;49.22
9893;BME280;4985;49.092;8.542;2023-08-06T10:35:31;98479.03;;;22.82;49.22
9893;BME280;4985;49.092;8.542;2023-08-06T10:37:59;98486.00;;;22.83;49.24
9893;BME280;4985;49.092;8.542;2023-08-06T10:40:26;98487.34;;;22.80;49.24
9893;BME280;4985;49.092;8.542;2023-08-06T10:42:52;98505.88;;;22.82;49.25
9893;BME280;4985;49.092;8.542;2023-08-06T10:45:19;98502.09;;;22.83;49.24
9893;BME280;4985;49.092;8.542;2023-08-06T10:47:52;98508.00;;;22.80;49.24
9893;BME280;4985;49.092;8.542;2023-08-06T10:50:19;98505.06;;;22.81;49.24
9893;BME280;4985;49.092;8.542;2023-08-06T10:52:48;98508.53;;;22.82;49.23
9893;BME280;4985;49.092;8.542;2023-08-06T10:55:24;98514.19;;;22.80;49.24
9893;BME280;4985;49.092;8.542;2023-08-06T10:58:00;98519.53;;;22.80;49.24
9893;BME280;4985;49.092;8.542;2023-08-06T11:00:26;98512.28;;;22.81;49.22
9893;BME280;4985;49.092;8.542;2023-08-06T11:02:53;98520.88;;;22.83;49.20
9893;BME280;4985;49.092;8.542;2023-08-06T11:05:20;98522.75;;;22.82;49.20
9893;BME280;4985;49.092;8.542;2023-08-06T11:07:48;98517.41;;;22.82;49.19
9893;BME280;4985;49.092;8.542;2023-08-06T11:10:16;98521.97;;;22.82;49.19
9893;BME280;4985;49.092;8.542;2023-08-06T11:12:43;98529.19;;;22.81;49.19
9893;BME280;4985;49.092;8.542;2023-08-06T11:15:10;98529.47;;;22.80;49.19
9893;BME280;4985;49.092;8.542;2023-08-06T11:18:17;98529.72;;;22.78;49.20
9893;BME280;4985;49.092;8.542;2023-08-06T11:20:29;98531.34;;;22.79;49.21
9893;BME280;4985;49.092;8.542;2023-08-06T11:23:12;98538.59;;;22.79;49.21
9893;BME280;4985;49.092;8.542;2023-08-06T11:25:44;98550.94;;;22.80;49.22
9893;BME280;4985;49.092;8.542;2023-08-06T11:28:19;98534.84;;;22.80;49.19
9893;BME280;4985;49.092;8.542;2023-08-06T11:30:46;98548.25;;;22.80;49.18
9893;BME280;4985;49.092;8.542;2023-08-06T11:33:32;98545.56;;;22.80;49.17
9893;BME280;4985;49.092;8.542;2023-08-06T11:36:07;98548.50;;;22.78;49.19
9893;BME280;4985;49.092;8.542;2023-08-06T11:38:35;98537.78;;;22.78;49.18
9893;BME280;4985;49.092;8.542;2023-08-06T11:41:02;98564.62;;;22.78;49.18
9893;BME280;4985;49.092;8.542;2023-08-06T11:43:30;98569.16;;;22.78;49.19
9893;BME280;4985;49.092;8.542;2023-08-06T11:45:59;98566.50;;;22.78;49.18
9893;BME280;4985;49.092;8.542;2023-08-06T11:48:52;98576.16;;;22.79;49.17
9893;BME280;4985;49.092;8.542;2023-08-06T11:51:26;98578.03;;;22.78;49.14
9893;BME280;4985;49.092;8.542;2023-08-06T11:53:55;98568.59;;;22.76;49.14
9893;BME280;4985;49.092;8.542;2023-08-06T11:56:22;98576.41;;;22.77;49.16
9893;BME280;4985;49.092;8.542;2023-08-06T11:58:49;98580.97;;;22.77;49.14
9893;BME280;4985;49.092;8.542;2023-08-06T12:01:15;98586.34;;;22.77;49.13
9893;BME280;4985;49.092;8.542;2023-08-06T12:03:42;98586.88;;;22.79;49.11
9893;BME280;4985;49.092;8.542;2023-08-06T12:06:09;98603.25;;;22.77;49.11
9893;BME280;4985;49.092;8.542;2023-08-06T12:08:35;98598.69;;;22.78;49.12
9893;BME280;4985;49.092;8.542;2023-08-06T12:11:04;98607.81;;;22.77;49.13
9893;BME280;4985;49.092;8.542;2023-08-06T12:13:31;98608.84;;;22.76;49.14
9893;BME280;4985;49.092;8.542;2023-08-06T12:15:57;98608.84;;;22.76;49.14
9893;BME280;4985;49.092;8.542;2023-08-06T12:18:24;98607.22;;;22.75;49.14
9893;BME280;4985;49.092;8.542;2023-08-06T12:20:52;98608.03;;;22.75;49.16
9893;BME280;4985;49.092;8.542;2023-08-06T12:23:19;98613.66;;;22.74;49.15
9893;BME280;4985;49.092;8.542;2023-08-06T12:25:45;98612.59;;;22.75;49.15
9893;BME280;4985;49.092;8.542;2023-08-06T12:28:13;98611.78;;;22.74;49.15
9893;BME280;4985;49.092;8.542;2023-08-06T12:30:40;98623.31;;;22.75;49.14
9893;BME280;4985;49.092;8.542;2023-08-06T12:33:08;98632.19;;;22.75;49.13
9893;BME280;4985;49.092;8.542;2023-08-06T12:35:34;98633.25;;;22.74;49.12
9893;BME280;4985;49.092;8.542;2023-08-06T12:38:02;98631.38;;;22.75;49.11
9893;BME280;4985;49.092;8.542;2023-08-06T12:40:29;98630.56;;;22.74;49.12
9893;BME280;4985;49.092;8.542;2023-08-06T12:42:55;98630.56;;;22.74;49.11
9893;BME280;4985;49.092;8.542;2023-08-06T12:45:31;98643.19;;;22.74;49.12
9893;BME280;4985;49.092;8.542;2023-08-06T12:47:57;98643.19;;;22.74;49.11
9893;BME280;4985;49.092;8.542;2023-08-06T12:50:24;98637.81;;;22.74;49.11
9893;BME280;4985;49.092;8.542;2023-08-06T12:52:50;98645.84;;;22.74;49.11
9893;BME280;4985;49.092;8.542;2023-08-06T12:55:17;98651.50;;;22.72;49.12
9893;BME280;4985;49.092;8.542;2023-08-06T12:57:43;98654.44;;;22.71;49.12
9893;BME280;4985;49.092;8.542;2023-08-06T13:00:10;98659.53;;;22.72;49.13
9893;BME280;4985;49.092;8.542;2023-08-06T13:02:38;98659.53;;;22.72;49.12
9893;BME280;4985;49.092;8.542;2023-08-06T13:05:05;98653.38;;;22.72;49.11
9893;BME280;4985;49.092;8.542;2023-08-06T13:07:32;98651.75;;;22.71;49.10
9893;BME280;4985;49.092;8.542;2023-08-06T13:09:58;98649.88;;;22.71;49.11
9893;BME280;4985;49.092;8.542;2023-08-06T13:12:25;98658.72;;;22.72;49.09
9893;BME280;4985;49.092;8.542;2023-08-06T13:14:52;98656.84;;;22.72;49.09
9893;BME280;4985;49.092;8.542;2023-08-06T13:17:24;98648.00;;;22.72;49.06
9893;BME280;4985;49.092;8.542;2023-08-06T13:19:53;98660.34;;;22.73;49.06
9893;BME280;4985;49.092;8.542;2023-08-06T13:22:20;98651.50;;;22.72;49.04
9893;BME280;4985;49.092;8.542;2023-08-06T13:24:46;98666.78;;;22.72;49.05
9893;BME280;4985;49.092;8.542;2023-08-06T13:27:20;98663.28;;;22.71;49.08
9893;BME280;4985;49.092;8.542;2023-08-06T13:29:47;98677.78;;;22.70;49.08